ZAREMBO AK US current weather conditions

sailwx.info

Wind from 342 at 11 knots gusting 20

Air temperature 10.0° C
Dewpoint 9.8° C

Last reported at 2014-Sep-19 13:55 UTC.
Time now 2014-Sep-19 15:53 UTC

Location: N 56°18' W 132°51'.
View on Google Maps.

See reports from other nearby stations

  
Tides and Currents Weather Stations Pressure Air Temp Water Temp Dewpoint Dewpoint Depression Visibility Wind Speed Wind Dir Waves Ship Positions
date/time (UTC)wind fromknots sea level pressurealtimeterstation pressurevisibilityair tempwater tempwave heightnotes
2014-Sep-19 13:55 342 11 gusting 20 10.0
2014-Sep-19 12:55 343 13 gusting 22 10.6
2014-Sep-19 11:55 343 13 gusting 19 10.6
2014-Sep-19 10:55 340 13 gusting 22 10.6
2014-Sep-19 09:55 342 15 gusting 24 10.6
2014-Sep-19 08:55 345 11 gusting 26 10.6
2014-Sep-19 07:55 342 14 gusting 22 10.6
2014-Sep-19 06:55 335 12 gusting 20 10.6
2014-Sep-19 05:55 343 13 gusting 22 10.6
2014-Sep-19 04:55 350 13 gusting 18 11.1
2014-Sep-19 03:55 342 13 gusting 24 10.6
2014-Sep-19 02:55 344 11 gusting 18 11.1
2014-Sep-19 01:55 359 13 gusting 24 10.6
2014-Sep-19 00:55 336 17 gusting 33 11.7
2014-Sep-18 23:55 335 19 gusting 33 11.7
2014-Sep-18 22:55 333 12 gusting 25 12.2
2014-Sep-18 21:55 326 6 gusting 20 12.2
2014-Sep-18 20:55 323 5 gusting 13 11.1
2014-Sep-18 19:55 317 6 gusting 15 11.1
2014-Sep-18 18:55 300 4 gusting 15 11.7
2014-Sep-18 17:55 286 6 gusting 13 11.7
2014-Sep-18 16:55 268 2 gusting 7 11.1
2014-Sep-18 15:55 261 4 gusting 7 11.1
2014-Sep-18 14:55 263 1 gusting 5 10.6
2014-Sep-18 13:55 210 2 gusting 8 10.0
2014-Sep-18 12:55 261 4 gusting 7 10.6
2014-Sep-18 11:55 218 0 gusting 9 10.0
2014-Sep-18 10:55 286 6 gusting 13 10.6
2014-Sep-18 09:55 324 6 gusting 13 10.0
2014-Sep-18 08:55 342 6 gusting 12 10.6
2014-Sep-18 07:55 328 6 gusting 17 10.6
2014-Sep-18 06:55 326 6 gusting 13 10.6
2014-Sep-18 05:55 328 6 gusting 12 11.1
2014-Sep-18 04:55 326 5 gusting 10 11.1
2014-Sep-18 02:55 046 3 gusting 5 11.7
2014-Sep-18 01:55 075 3 gusting 5 13.3
2014-Sep-18 00:55 068 1 gusting 6 12.8
2014-Sep-17 23:55 019 4 gusting 7 13.9
2014-Sep-17 22:55 024 3 gusting 7 15.6
2014-Sep-17 21:55 011 4 gusting 6 15.0
2014-Sep-17 20:55 062 2 gusting 6 15.6
2014-Sep-17 19:55 055 3 gusting 8 15.6
2014-Sep-17 18:55 063 2 gusting 4 16.7
2014-Sep-17 17:55 081 2 gusting 4 15.6
2014-Sep-17 16:55 085 2 gusting 3 12.2
2014-Sep-17 15:55 024 0 gusting 2 10.6